Airfield :
LOGIN :

Register | Disclaimer

   EN    FR    IT 

 










Legend :    VFR   Marginal VFR   IFR   Intensive IFR   Very Intensive IFR
Visi :
Ceiling :
>= 8 km
>= 3000ft
5 to 8 km
1000 to 3000 ft
1500m to 5 km
500 to 1000 ft
800 to 1500m
200 to 500 ft
< 800m
< 200 ft
Symbols :   Thunderstorms  Fog  Heavy snow  Heavy precipitations  Wind > 20 kt
SIGMETs :     Misc.  Thunderstorms  Icing  Turbulence  Mountain Waves  Volcanic Ashes






- Airport Elevation : 16 ft
- IATA code : EAS


LESO - San Sebastian Fuenterrabia

CURRENT METAR :
  • 240000Z AUTO 25016G29KT 200V300 9999 -RA SCT038 BKN047 BKN058 13/09 Q0999

EXPIRED METARs :
  • 232330Z AUTO 23012KT 190V280 9999 FEW039 BKN060 12/08 Q0998
  • 232300Z AUTO 23007KT 200V280 9999 FEW047 SCT069 11/08 Q0999
  • 232230Z AUTO VRB02G18KT 8000 FEW044 09/08 Q0999
  • 232200Z AUTO 00000KT 9000 SCT037 SCT046 08/08 Q0999
  • 232130Z AUTO VRB02KT 9999 FEW037 SCT045 08/08 Q1000

TAF TAF LESO
Valid from the 24 at 00:00 until the 25 at 00:00 UTC


232300Z 2400/2424 25009KT 9999 SCT010 SCT040 TX12/2415Z TN06/2408Z
PROB40
TEMPO 2400/2408 31012KT BKN010
PROB40
TEMPO 2400/2402 31020G40KT
TEMPO 2400/2408 3000 RA SHRA SCT030TCU
TEMPO 2418/2424 3000 RA BKN010



MET'MAP, your aeronautical weather chart ! - Copyright ORBIFLY December 2007 - Disclaimer

ORBIFLY MET'MAP TEAM :

Programming & Development : Alexandra Zaïnal
Concept & original design : Baudouin d'Aumeries
Assistance for programming : Marc-Olivier Méhu
Technical & hardware support : Manuel Goepfert

Contact : metmap@orbifly.com




SOURCES & CREDITS :

   NOAA